Estación de Alto del Carmen

Ultimos registro cada 15 minutos 34
Estación Fecha / Hora Temperatura Humedad Lluvia Velocidad Dirección Radiación Presion
34 Alto del Carmen 06-05-2026 08:15 8,7 69 0 0 8 16 1016,4
33 Alto del Carmen 06-05-2026 08:00 9,2 67 0 0,4 8 14 1016,1
32 Alto del Carmen 06-05-2026 07:45 7,3 73 0 0 7 11 1016
31 Alto del Carmen 06-05-2026 07:30 6,4 76 0 0,4 7 5 1016
30 Alto del Carmen 06-05-2026 07:15 6,5 75 0 0 7 0 1016,2
29 Alto del Carmen 06-05-2026 07:00 7 74 0 0 7 0 1015,9
28 Alto del Carmen 06-05-2026 06:45 6,7 77 0 0,4 7 0 1015,7
27 Alto del Carmen 06-05-2026 06:30 5,9 79 0 0,4 7 0 1015,7
26 Alto del Carmen 06-05-2026 06:15 6,2 78 0 0 7 0 1015,6
25 Alto del Carmen 06-05-2026 06:00 6 78 0 0,4 7 0 1015,4
24 Alto del Carmen 06-05-2026 05:45 6,3 77 0 0,4 7 0 1015,3
23 Alto del Carmen 06-05-2026 05:30 6,8 76 0 0,4 7 0 1015,4
22 Alto del Carmen 06-05-2026 05:15 7,4 74 0 0 7 0 1015,2
21 Alto del Carmen 06-05-2026 05:00 7,2 76 0 0,9 7 0 1015
20 Alto del Carmen 06-05-2026 04:45 6,9 77 0 0,9 7 0 1015
19 Alto del Carmen 06-05-2026 04:30 7 76 0 0 352 0 1015,1
18 Alto del Carmen 06-05-2026 04:15 6,8 77 0 0 2 0 1014,9
17 Alto del Carmen 06-05-2026 04:00 7,1 75 0 0 2 0 1014,8
16 Alto del Carmen 06-05-2026 03:45 7,6 74 0 0,4 2 0 1014,6
15 Alto del Carmen 06-05-2026 03:30 8 74 0 0 2 0 1014,4
14 Alto del Carmen 06-05-2026 03:15 8,6 72 0 0 2 0 1014,3
13 Alto del Carmen 06-05-2026 03:00 8,3 73 0 0,9 2 0 1014,5
12 Alto del Carmen 06-05-2026 02:45 8,2 73 0 0,9 1 0 1014,7
11 Alto del Carmen 06-05-2026 02:30 8,8 71 0 0,4 1 0 1014,7
10 Alto del Carmen 06-05-2026 02:15 9,6 69 0 0 1 0 1015
9 Alto del Carmen 06-05-2026 02:00 10,6 65 0 0,4 1 0 1015
8 Alto del Carmen 06-05-2026 01:45 10,7 66 0 0 1 0 1014,8
7 Alto del Carmen 06-05-2026 01:30 10,6 67 0 0 1 0 1014,9
6 Alto del Carmen 06-05-2026 01:15 10,4 68 0 0 1 0 1014,8
5 Alto del Carmen 06-05-2026 01:00 9,2 72 0 0 1 0 1014,9
4 Alto del Carmen 06-05-2026 00:45 9,1 73 0 0 360 0 1015
3 Alto del Carmen 06-05-2026 00:30 9,6 71 0 0 360 0 1015,1
2 Alto del Carmen 06-05-2026 00:15 10,4 69 0 0 360 0 1015
1 Alto del Carmen 06-05-2026 00:00 11,6 65 0 0 360 0 1014,9